Time;durP1;ratioP1;P1;durP2;ratioP2;P2;SDS_P1;SDS_P2;PMS_P1;PMS_P2;Temp;Humidity;BMP_temperature;BMP_pressure;BME280_temperature;BME280_humidity;BME280_pressure;Samples;Min_cycle;Max_cycle;Signal;HPM_P1;HPM_P2
2021/11/12 00:15:11;;;;;;;77.67;35.53;;;;;;;;;;4941173;28;20619;-74
2021/11/12 00:17:40;;;;;;;84.03;37.23;;;;;;;;;;4940295;28;20211;-73
2021/11/12 00:20:08;;;;;;;97.37;41.03;;;;;;;;;;4992070;28;20240;-75
2021/11/12 00:22:34;;;;;;;98.10;42.17;;;;;;;;;;4960284;28;20225;-74
2021/11/12 00:25:02;;;;;;;92.90;42.70;;;;;;;;;;4954194;28;20294;-75
2021/11/12 00:27:28;;;;;;;105.23;47.03;;;;;;;;;;4976051;28;20217;-74
2021/11/12 00:32:59;;;;;;;109.13;44.27;;;;;;;;;;4983058;28;20224;-75
2021/11/12 00:38:15;;;;;;;101.17;43.77;;;;;;;;;;4962360;28;20284;-75
2021/11/12 00:46:21;;;;;;;96.87;41.77;;;;;;;;;;4949402;28;20754;-75
2021/11/12 00:48:52;;;;;;;100.87;42.53;;;;;;;;;;4961676;28;20300;-75
2021/11/12 00:51:22;;;;;;;99.03;39.93;;;;;;;;;;4958445;28;20288;-75
2021/11/12 00:54:06;;;;;;;96.60;39.83;;;;;;;;;;4959577;28;20232;-75
2021/11/12 00:56:32;;;;;;;95.60;40.00;;;;;;;;;;4960145;28;20237;-75
2021/11/12 00:58:58;;;;;;;100.03;41.53;;;;;;;;;;4973137;28;20588;-75
2021/11/12 01:01:29;;;;;;;101.30;42.10;;;;;;;;;;4941874;28;20376;-75
2021/11/12 01:03:57;;;;;;;96.80;40.97;;;;;;;;;;4958690;28;20232;-75
2021/11/12 01:06:28;;;;;;;89.90;41.40;;;;;;;;;;4990757;28;20221;-75
2021/11/12 01:08:56;;;;;;;96.90;41.00;;;;;;;;;;4990203;28;20217;-75
2021/11/12 01:11:26;;;;;;;88.67;40.60;;;;;;;;;;4973082;28;20229;-74
2021/11/12 01:13:52;;;;;;;100.07;40.63;;;;;;;;;;4966316;28;20263;-74
2021/11/12 01:16:18;;;;;;;113.97;40.67;;;;;;;;;;4941086;28;20225;-75
2021/11/12 01:18:47;;;;;;;103.63;41.40;;;;;;;;;;4957489;28;20253;-74
2021/11/12 01:21:15;;;;;;;93.67;38.90;;;;;;;;;;4958989;28;20284;-74
2021/11/12 01:23:45;;;;;;;95.10;39.87;;;;;;;;;;4943592;28;20300;-75
2021/11/12 01:26:13;;;;;;;88.63;37.40;;;;;;;;;;4942981;28;20221;-74
2021/11/12 01:28:40;;;;;;;85.30;36.10;;;;;;;;;;4957928;28;20217;-75
2021/11/12 01:31:05;;;;;;;85.77;34.87;;;;;;;;;;4941276;28;20225;-74
2021/11/12 01:33:31;;;;;;;87.57;36.30;;;;;;;;;;4973769;28;20221;-73
2021/11/12 01:36:03;;;;;;;106.63;38.03;;;;;;;;;;4953698;28;20268;-74
2021/11/12 01:38:29;;;;;;;115.50;39.13;;;;;;;;;;4979057;28;20220;-74
2021/11/12 01:40:55;;;;;;;93.57;37.83;;;;;;;;;;4959702;28;20223;-75
2021/11/12 01:43:24;;;;;;;105.27;38.13;;;;;;;;;;4957817;28;20228;-76
2021/11/12 01:53:40;;;;;;;97.87;37.10;;;;;;;;;;4976647;28;20817;-74
2021/11/12 01:56:22;;;;;;;90.10;35.63;;;;;;;;;;5004435;28;20237;-73
2021/11/12 02:01:15;;;;;;;115.80;39.20;;;;;;;;;;4968373;28;20288;-74
2021/11/12 02:03:43;;;;;;;96.33;36.70;;;;;;;;;;4987218;28;20280;-76
2021/11/12 02:06:12;;;;;;;104.50;36.20;;;;;;;;;;4956186;28;20252;-76
2021/11/12 02:08:40;;;;;;;115.83;38.77;;;;;;;;;;4966824;28;20758;-75
2021/11/12 02:11:05;;;;;;;119.07;36.77;;;;;;;;;;4958112;28;20301;-75
2021/11/12 02:13:35;;;;;;;117.10;37.07;;;;;;;;;;4956073;28;20222;-76
2021/11/12 02:16:08;;;;;;;110.53;36.63;;;;;;;;;;4986608;28;20233;-74
2021/11/12 02:18:42;;;;;;;113.37;37.20;;;;;;;;;;4977715;28;20226;-74
2021/11/12 02:21:23;;;;;;;101.50;35.37;;;;;;;;;;4961020;28;20223;-75
2021/11/12 02:24:02;;;;;;;106.80;34.63;;;;;;;;;;4979271;28;20584;-75
2021/11/12 02:26:34;;;;;;;97.47;33.60;;;;;;;;;;4961372;28;20241;-74
2021/11/12 02:29:00;;;;;;;101.07;35.50;;;;;;;;;;4961530;28;20301;-75
2021/11/12 02:31:27;;;;;;;116.10;34.77;;;;;;;;;;4969532;28;20296;-75
2021/11/12 02:33:55;;;;;;;104.37;36.00;;;;;;;;;;4976970;28;20237;-75
2021/11/12 02:36:23;;;;;;;107.50;34.93;;;;;;;;;;4976834;28;20226;-75
2021/11/12 02:38:53;;;;;;;100.57;33.63;;;;;;;;;;4945668;28;20288;-75
2021/11/12 02:41:23;;;;;;;91.23;32.37;;;;;;;;;;4975964;28;20304;-74
2021/11/12 02:43:54;;;;;;;85.93;31.20;;;;;;;;;;4992382;28;20241;-74
2021/11/12 02:46:24;;;;;;;85.27;31.13;;;;;;;;;;4975793;28;20226;-74
2021/11/12 02:48:50;;;;;;;88.17;30.77;;;;;;;;;;4961501;28;20615;-73
2021/11/12 02:51:23;;;;;;;74.27;27.37;;;;;;;;;;4975499;28;20221;-74
2021/11/12 02:53:49;;;;;;;69.37;26.30;;;;;;;;;;4961821;28;20737;-74
2021/11/12 02:56:38;;;;;;;65.30;25.57;;;;;;;;;;4963943;28;20703;-74
2021/11/12 02:59:05;;;;;;;74.13;32.20;;;;;;;;;;4978643;28;20214;-74
2021/11/12 03:01:32;;;;;;;73.93;27.50;;;;;;;;;;4954141;28;20256;-74
2021/11/12 03:04:00;;;;;;;68.50;25.83;;;;;;;;;;4961084;28;20691;-74
2021/11/12 03:06:28;;;;;;;66.93;25.93;;;;;;;;;;4976007;28;20222;-75
2021/11/12 03:08:57;;;;;;;122.17;53.57;;;;;;;;;;4993373;28;20672;-74
2021/11/12 03:11:25;;;;;;;156.83;62.87;;;;;;;;;;4959671;28;20233;-74
2021/11/12 03:13:53;;;;;;;79.63;30.87;;;;;;;;;;4976076;28;20240;-74
2021/11/12 03:16:20;;;;;;;73.93;25.67;;;;;;;;;;4959660;28;20217;-76
2021/11/12 03:18:45;;;;;;;240.43;100.17;;;;;;;;;;4943740;28;20292;-74
2021/11/12 03:21:14;;;;;;;76.13;28.60;;;;;;;;;;4959007;28;20713;-74
2021/11/12 03:24:05;;;;;;;123.83;46.33;;;;;;;;;;4976373;28;20225;-74
2021/11/12 03:26:41;;;;;;;79.53;31.40;;;;;;;;;;4948049;28;20300;-75
2021/11/12 04:05:10;;;;;;;79.80;24.57;;;;;;;;;;4978030;28;20713;-74
2021/11/12 04:18:45;;;;;;;60.77;21.13;;;;;;;;;;4948593;28;20229;-74
2021/11/12 04:41:04;;;;;;;70.83;20.47;;;;;;;;;;4973178;28;20221;-75
2021/11/12 05:46:39;;;;;;;58.87;23.67;;;;;;;;;;4903108;29;20235;-75
2021/11/12 05:57:21;;;;;;;71.83;24.37;;;;;;;;;;4982415;28;20683;-75
2021/11/12 05:59:47;;;;;;;79.10;26.23;;;;;;;;;;4979944;28;20247;-75
2021/11/12 06:02:16;;;;;;;61.57;20.80;;;;;;;;;;4996884;28;20232;-77
2021/11/12 06:04:44;;;;;;;52.70;20.13;;;;;;;;;;4963209;28;20216;-74
2021/11/12 06:07:09;;;;;;;44.83;18.30;;;;;;;;;;4963741;28;20239;-75
2021/11/12 06:09:36;;;;;;;77.60;19.70;;;;;;;;;;4979574;28;20256;-74
2021/11/12 06:12:01;;;;;;;49.90;18.20;;;;;;;;;;4964052;28;20228;-74
2021/11/12 06:14:29;;;;;;;46.30;17.73;;;;;;;;;;4996560;28;20695;-74
2021/11/12 06:16:55;;;;;;;62.63;19.80;;;;;;;;;;4963957;28;20310;-74
2021/11/12 06:19:23;;;;;;;35.53;17.77;;;;;;;;;;4996356;28;20602;-75
2021/11/12 06:21:49;;;;;;;50.73;17.67;;;;;;;;;;4948240;28;20227;-75
2021/11/12 06:24:15;;;;;;;43.20;17.70;;;;;;;;;;4963574;28;20222;-75
2021/11/12 06:26:43;;;;;;;43.87;16.80;;;;;;;;;;4947526;28;20351;-74
2021/11/12 06:29:11;;;;;;;40.63;16.00;;;;;;;;;;4996585;28;20229;-74
2021/11/12 06:31:36;;;;;;;40.47;16.83;;;;;;;;;;4979861;28;20715;-74
2021/11/12 06:34:02;;;;;;;45.30;16.77;;;;;;;;;;4978123;28;20224;-74
2021/11/12 06:36:29;;;;;;;40.47;16.57;;;;;;;;;;4963622;28;20224;-74
2021/11/12 06:38:55;;;;;;;36.83;15.70;;;;;;;;;;4980001;28;20225;-75
2021/11/12 06:41:56;;;;;;;44.80;17.03;;;;;;;;;;4942719;28;20265;-75
2021/11/12 06:49:51;;;;;;;36.97;15.37;;;;;;;;;;4966091;28;20282;-75
2021/11/12 06:52:19;;;;;;;35.40;15.17;;;;;;;;;;4975431;28;20773;-75
2021/11/12 06:54:48;;;;;;;65.97;25.90;;;;;;;;;;4960029;28;20267;-75
2021/11/12 06:57:19;;;;;;;44.17;17.50;;;;;;;;;;4974637;28;20225;-75
2021/11/12 06:59:46;;;;;;;42.03;16.87;;;;;;;;;;4959944;28;20781;-75
2021/11/12 07:02:12;;;;;;;50.37;18.67;;;;;;;;;;4979996;28;20237;-75
2021/11/12 07:04:40;;;;;;;39.27;18.07;;;;;;;;;;4967216;28;20279;-75
2021/11/12 07:07:08;;;;;;;47.47;18.03;;;;;;;;;;4975197;28;20297;-73
2021/11/12 07:09:34;;;;;;;62.90;20.70;;;;;;;;;;4959711;28;20284;-75
2021/11/12 07:12:00;;;;;;;45.63;18.83;;;;;;;;;;4976116;28;20213;-75
2021/11/12 07:14:27;;;;;;;47.87;17.70;;;;;;;;;;4971949;28;20257;-75
2021/11/12 07:16:53;;;;;;;51.93;20.93;;;;;;;;;;4972110;28;20218;-75
2021/11/12 07:19:19;;;;;;;43.83;18.17;;;;;;;;;;4956536;28;20607;-74
2021/11/12 07:21:49;;;;;;;45.43;18.80;;;;;;;;;;4938991;28;20698;-74
2021/11/12 07:24:15;;;;;;;45.57;18.13;;;;;;;;;;4956413;28;20229;-74
2021/11/12 07:26:41;;;;;;;43.30;18.23;;;;;;;;;;4974624;28;20218;-74
2021/11/12 07:29:11;;;;;;;39.80;17.63;;;;;;;;;;4992990;28;20220;-74
2021/11/12 07:31:38;;;;;;;39.70;16.87;;;;;;;;;;4944936;28;20218;-74
2021/11/12 07:34:04;;;;;;;40.50;17.77;;;;;;;;;;4960305;28;20231;-74
2021/11/12 07:36:52;;;;;;;38.90;17.23;;;;;;;;;;4969522;28;20225;-74
2021/11/12 07:39:38;;;;;;;38.40;17.67;;;;;;;;;;4982503;28;20221;-73
2021/11/12 07:44:53;;;;;;;42.67;17.93;;;;;;;;;;5011795;28;20225;-74
2021/11/12 07:47:24;;;;;;;33.77;16.20;;;;;;;;;;4975542;28;20222;-74
2021/11/12 07:49:54;;;;;;;32.07;17.10;;;;;;;;;;4988797;28;20268;-75
2021/11/12 07:52:23;;;;;;;32.23;15.73;;;;;;;;;;4973409;28;20256;-75
2021/11/12 07:54:52;;;;;;;35.70;17.40;;;;;;;;;;4975709;28;20229;-74
2021/11/12 07:57:20;;;;;;;34.50;18.73;;;;;;;;;;4994762;28;20324;-75
2021/11/12 07:59:48;;;;;;;34.53;18.97;;;;;;;;;;4961782;28;20217;-74
2021/11/12 08:02:17;;;;;;;32.67;16.87;;;;;;;;;;4975906;28;20703;-74
2021/11/12 08:04:47;;;;;;;32.47;17.90;;;;;;;;;;4944326;28;20258;-75
2021/11/12 08:07:13;;;;;;;30.37;15.90;;;;;;;;;;4970525;28;20304;-74
2021/11/12 08:09:57;;;;;;;33.80;17.07;;;;;;;;;;4959212;28;20269;-75
2021/11/12 08:12:40;;;;;;;30.67;16.60;;;;;;;;;;4970518;28;20716;-75
2021/11/12 08:23:23;;;;;;;32.30;18.33;;;;;;;;;;4947551;28;20248;-76
2021/11/12 08:26:04;;;;;;;32.47;18.63;;;;;;;;;;4977165;28;20268;-74
2021/11/12 08:28:55;;;;;;;33.93;17.77;;;;;;;;;;4977443;28;20222;-74
2021/11/12 08:34:37;;;;;;;31.07;17.33;;;;;;;;;;4974636;28;20662;-73
2021/11/12 08:37:20;;;;;;;27.00;16.80;;;;;;;;;;4961793;28;20217;-74
2021/11/12 08:42:23;;;;;;;28.70;16.33;;;;;;;;;;4970691;28;20218;-74
2021/11/12 08:44:57;;;;;;;25.17;16.40;;;;;;;;;;4954965;28;20215;-73
2021/11/12 08:47:41;;;;;;;23.43;14.77;;;;;;;;;;4966151;28;20794;-73
2021/11/12 08:50:12;;;;;;;25.90;14.67;;;;;;;;;;4959451;28;20227;-74
2021/11/12 08:52:39;;;;;;;24.70;15.30;;;;;;;;;;4956718;28;20284;-74
2021/11/12 08:55:08;;;;;;;25.00;15.37;;;;;;;;;;4973705;28;20226;-73
2021/11/12 08:57:39;;;;;;;22.97;14.87;;;;;;;;;;4974569;28;20703;-76
2021/11/12 09:00:07;;;;;;;24.90;14.47;;;;;;;;;;4984530;28;20756;-73
2021/11/12 09:02:33;;;;;;;26.70;16.53;;;;;;;;;;4974638;28;20276;-73
2021/11/12 09:05:02;;;;;;;25.47;16.00;;;;;;;;;;4958865;28;20213;-74
2021/11/12 09:07:27;;;;;;;27.63;15.57;;;;;;;;;;4974147;28;20224;-73
2021/11/12 09:09:56;;;;;;;26.53;16.30;;;;;;;;;;4973349;28;20686;-74
2021/11/12 09:12:25;;;;;;;30.70;17.27;;;;;;;;;;4955496;28;20237;-74
2021/11/12 09:14:55;;;;;;;30.80;16.97;;;;;;;;;;4983737;28;20248;-74
2021/11/12 09:17:23;;;;;;;29.33;15.67;;;;;;;;;;4957596;28;20213;-75
2021/11/12 09:19:54;;;;;;;27.93;16.47;;;;;;;;;;4956432;28;20309;-73
2021/11/12 09:22:26;;;;;;;29.93;17.60;;;;;;;;;;4940925;28;20242;-74
2021/11/12 09:24:55;;;;;;;28.97;17.50;;;;;;;;;;4960014;28;20325;-73
2021/11/12 09:27:21;;;;;;;29.50;17.77;;;;;;;;;;4980022;28;20232;-74
2021/11/12 09:29:47;;;;;;;31.87;18.10;;;;;;;;;;4957189;28;20612;-75
2021/11/12 09:32:15;;;;;;;31.93;18.10;;;;;;;;;;4973409;28;20637;-75
2021/11/12 09:34:43;;;;;;;32.73;18.23;;;;;;;;;;4973801;28;20711;-75
2021/11/12 09:37:09;;;;;;;30.77;18.07;;;;;;;;;;4957520;28;20773;-75
2021/11/12 09:39:38;;;;;;;29.20;17.33;;;;;;;;;;4942436;28;20256;-75
2021/11/12 09:42:05;;;;;;;29.83;17.63;;;;;;;;;;4990232;28;20726;-74
2021/11/12 09:44:31;;;;;;;25.00;15.20;;;;;;;;;;4971605;28;20271;-73
2021/11/12 09:46:59;;;;;;;25.93;16.07;;;;;;;;;;4972253;28;20225;-73
2021/11/12 09:49:25;;;;;;;27.07;15.97;;;;;;;;;;4937994;28;20225;-74
2021/11/12 09:51:55;;;;;;;24.73;15.53;;;;;;;;;;4947899;28;20654;-75
2021/11/12 09:54:21;;;;;;;24.50;14.73;;;;;;;;;;4971145;28;20213;-75
2021/11/12 09:56:49;;;;;;;24.17;15.43;;;;;;;;;;4972094;28;20587;-75
2021/11/12 09:59:14;;;;;;;24.60;14.73;;;;;;;;;;4989420;28;20329;-74
2021/11/12 10:01:42;;;;;;;21.80;14.80;;;;;;;;;;4950093;28;20222;-75
2021/11/12 10:04:11;;;;;;;22.23;14.50;;;;;;;;;;4969390;28;20356;-75
2021/11/12 10:06:38;;;;;;;18.33;13.20;;;;;;;;;;4954876;28;20225;-74
2021/11/12 10:09:12;;;;;;;21.00;14.13;;;;;;;;;;4972018;28;20229;-74
2021/11/12 10:11:49;;;;;;;19.67;13.57;;;;;;;;;;4958669;28;20275;-75
2021/11/12 10:14:51;;;;;;;19.33;12.77;;;;;;;;;;4957629;28;20220;-75
2021/11/12 10:17:20;;;;;;;16.83;11.73;;;;;;;;;;4973142;28;20304;-74
2021/11/12 10:19:53;;;;;;;16.97;11.57;;;;;;;;;;4989990;28;20782;-75
2021/11/12 10:22:23;;;;;;;18.07;11.13;;;;;;;;;;4959354;28;20256;-74
2021/11/12 10:24:52;;;;;;;15.93;10.90;;;;;;;;;;4956085;28;20304;-74
2021/11/12 10:27:24;;;;;;;14.73;10.70;;;;;;;;;;4976086;28;20248;-75
2021/11/12 10:29:56;;;;;;;16.37;10.60;;;;;;;;;;4977145;28;20224;-75
2021/11/12 10:32:25;;;;;;;15.60;10.57;;;;;;;;;;4973430;28;20249;-74
2021/11/12 10:34:52;;;;;;;16.20;10.63;;;;;;;;;;4961085;28;20229;-74
2021/11/12 10:37:29;;;;;;;15.47;10.43;;;;;;;;;;4959844;28;20221;-74
2021/11/12 10:40:02;;;;;;;17.50;10.97;;;;;;;;;;4945024;28;20217;-75
2021/11/12 10:42:29;;;;;;;17.63;11.87;;;;;;;;;;4976361;28;20679;-74
2021/11/12 10:44:59;;;;;;;17.87;11.03;;;;;;;;;;4961407;28;20590;-75
2021/11/12 10:47:26;;;;;;;16.03;11.70;;;;;;;;;;4992331;28;20304;-75
2021/11/12 10:49:55;;;;;;;15.30;11.70;;;;;;;;;;4976975;28;20606;-75
2021/11/12 10:52:23;;;;;;;16.87;11.13;;;;;;;;;;4945103;28;20658;-73
2021/11/12 10:55:03;;;;;;;18.07;12.30;;;;;;;;;;4962853;28;20238;-75
2021/11/12 10:58:01;;;;;;;18.67;11.97;;;;;;;;;;4996645;28;20251;-73
2021/11/12 11:00:37;;;;;;;17.23;11.87;;;;;;;;;;4956825;28;20232;-73
2021/11/12 11:03:10;;;;;;;19.17;11.97;;;;;;;;;;4968890;28;20621;-74
2021/11/12 11:05:41;;;;;;;17.73;11.57;;;;;;;;;;4956221;28;20362;-75
2021/11/12 11:08:07;;;;;;;17.63;12.43;;;;;;;;;;4956746;28;20218;-74
2021/11/12 11:10:35;;;;;;;17.63;12.00;;;;;;;;;;4966744;28;20220;-74
2021/11/12 11:13:16;;;;;;;17.43;11.50;;;;;;;;;;4968536;28;20248;-74
2021/11/12 11:15:54;;;;;;;16.30;10.63;;;;;;;;;;4977642;28;20240;-75
2021/11/12 11:18:37;;;;;;;14.20;9.57;;;;;;;;;;4960235;28;20304;-76
2021/11/12 11:23:44;;;;;;;8.33;6.17;;;;;;;;;;4973636;28;20811;-75
2021/11/12 11:26:10;;;;;;;7.90;6.00;;;;;;;;;;4974023;28;20248;-75
2021/11/12 11:28:36;;;;;;;7.40;5.57;;;;;;;;;;4959911;28;20707;-74
2021/11/12 11:31:03;;;;;;;9.03;5.47;;;;;;;;;;4975069;28;20237;-74
2021/11/12 11:33:28;;;;;;;6.63;4.87;;;;;;;;;;4960331;28;20710;-75
2021/11/12 11:35:56;;;;;;;6.17;4.87;;;;;;;;;;4959834;28;20234;-74
2021/11/12 11:38:29;;;;;;;6.27;4.73;;;;;;;;;;4976320;28;20225;-75
2021/11/12 11:40:57;;;;;;;6.03;4.83;;;;;;;;;;4975898;28;20707;-73
2021/11/12 11:43:27;;;;;;;6.40;4.90;;;;;;;;;;4956802;28;20786;-74
2021/11/12 11:45:54;;;;;;;6.07;4.90;;;;;;;;;;4971759;28;20304;-74
2021/11/12 11:48:19;;;;;;;4.40;3.53;;;;;;;;;;4975417;28;20273;-73
2021/11/12 11:50:58;;;;;;;5.37;4.30;;;;;;;;;;4975743;28;20240;-75
2021/11/12 11:53:30;;;;;;;5.10;3.70;;;;;;;;;;4960422;28;20275;-75
2021/11/12 11:56:20;;;;;;;4.23;3.57;;;;;;;;;;4969610;28;20295;-75
2021/11/12 11:58:46;;;;;;;4.63;3.40;;;;;;;;;;4992990;28;20682;-74
2021/11/12 12:01:18;;;;;;;3.50;3.20;;;;;;;;;;4995846;28;20290;-75
2021/11/12 12:03:46;;;;;;;5.03;3.23;;;;;;;;;;4959539;28;20312;-73
2021/11/12 12:06:17;;;;;;;3.43;3.07;;;;;;;;;;4942955;28;20755;-75
2021/11/12 12:09:09;;;;;;;4.67;2.90;;;;;;;;;;4975177;28;20225;-75
2021/11/12 12:11:45;;;;;;;3.50;2.87;;;;;;;;;;4960930;28;20236;-74
2021/11/12 12:14:26;;;;;;;4.33;2.93;;;;;;;;;;4967339;28;20221;-74
2021/11/12 12:17:10;;;;;;;2.63;2.30;;;;;;;;;;4950082;28;20567;-73
2021/11/12 12:19:54;;;;;;;3.00;2.70;;;;;;;;;;4988612;28;20236;-75
2021/11/12 12:35:07;;;;;;;2.00;1.80;;;;;;;;;;4978562;28;20271;-77
2021/11/12 12:38:21;;;;;;;1.87;1.70;;;;;;;;;;4957116;28;20258;-75
2021/11/12 13:26:03;;;;;;;3.80;3.13;;;;;;;;;;4974088;28;20213;-75
2021/11/12 13:28:34;;;;;;;3.67;3.07;;;;;;;;;;4974646;28;20292;-75
2021/11/12 13:31:09;;;;;;;4.50;3.33;;;;;;;;;;4973832;28;20297;-75
2021/11/12 13:33:36;;;;;;;4.37;3.97;;;;;;;;;;4973876;28;20695;-75
2021/11/12 13:36:08;;;;;;;4.50;3.70;;;;;;;;;;4969721;28;20312;-74
2021/11/12 13:38:36;;;;;;;4.03;3.73;;;;;;;;;;4974672;28;20735;-75
2021/11/12 13:41:07;;;;;;;4.07;3.73;;;;;;;;;;4958592;28;20268;-76
2021/11/12 13:43:35;;;;;;;4.23;3.23;;;;;;;;;;4986908;28;20248;-73
2021/11/12 13:46:01;;;;;;;3.10;2.87;;;;;;;;;;4957426;28;20229;-74
2021/11/12 13:48:29;;;;;;;4.33;3.37;;;;;;;;;;4955785;28;20604;-74
2021/11/12 13:51:02;;;;;;;4.00;3.70;;;;;;;;;;4987968;28;20277;-74
2021/11/12 13:53:31;;;;;;;4.47;4.07;;;;;;;;;;4971745;28;20275;-74
2021/11/12 13:56:00;;;;;;;5.47;4.00;;;;;;;;;;4983367;28;20266;-73
2021/11/12 13:58:26;;;;;;;5.60;4.90;;;;;;;;;;4974536;28;20221;-74
2021/11/12 14:00:55;;;;;;;6.63;5.93;;;;;;;;;;5004369;28;20301;-74
2021/11/12 14:03:37;;;;;;;5.27;4.77;;;;;;;;;;4972747;28;20244;-75
2021/11/12 14:06:08;;;;;;;5.40;4.90;;;;;;;;;;4964349;28;20217;-74
2021/11/12 14:08:34;;;;;;;5.87;5.00;;;;;;;;;;4986423;28;20231;-76
2021/11/12 14:11:02;;;;;;;5.83;5.07;;;;;;;;;;4986669;28;20267;-75
2021/11/12 14:13:37;;;;;;;12.03;9.63;;;;;;;;;;4954443;28;20276;-75
2021/11/12 14:24:23;;;;;;;6.07;5.47;;;;;;;;;;4970780;28;20300;-73
2021/11/12 14:30:07;;;;;;;6.90;6.20;;;;;;;;;;4961886;28;20221;-72
2021/11/12 14:32:52;;;;;;;6.50;5.80;;;;;;;;;;4974995;28;20338;-73
2021/11/12 14:41:11;;;;;;;7.43;5.87;;;;;;;;;;4961979;28;20573;-74
2021/11/12 14:49:01;;;;;;;6.43;5.80;;;;;;;;;;4965839;28;20226;-72
2021/11/12 14:52:06;;;;;;;6.30;5.50;;;;;;;;;;4993832;28;20236;-72
2021/11/12 14:54:45;;;;;;;6.27;5.67;;;;;;;;;;4992889;28;20221;-74
2021/11/12 14:59:49;;;;;;;7.27;5.87;;;;;;;;;;4971181;28;20233;-73
2021/11/12 15:02:15;;;;;;;6.97;5.90;;;;;;;;;;4988032;28;20268;-74
2021/11/12 15:04:45;;;;;;;6.60;6.00;;;;;;;;;;4972077;28;20282;-73
2021/11/12 15:07:20;;;;;;;6.40;5.80;;;;;;;;;;4974662;28;20225;-74
2021/11/12 15:09:48;;;;;;;5.60;5.10;;;;;;;;;;4977025;28;20221;-74
2021/11/12 15:12:16;;;;;;;5.20;4.67;;;;;;;;;;4968030;28;20233;-73
2021/11/12 15:14:47;;;;;;;5.90;4.53;;;;;;;;;;4975230;28;20301;-74
2021/11/12 15:17:18;;;;;;;5.07;4.57;;;;;;;;;;4971071;28;20591;-74
2021/11/12 15:19:46;;;;;;;4.73;4.30;;;;;;;;;;4965171;28;20226;-74
2021/11/12 15:27:42;;;;;;;5.73;4.63;;;;;;;;;;4976937;28;20221;-74
2021/11/12 15:30:14;;;;;;;6.43;5.83;;;;;;;;;;4956987;28;20821;-73
2021/11/12 15:32:47;;;;;;;6.90;6.00;;;;;;;;;;4955745;28;20229;-73
2021/11/12 15:35:19;;;;;;;14.30;10.60;;;;;;;;;;4960010;28;20790;-73
2021/11/12 15:37:59;;;;;;;21.40;15.27;;;;;;;;;;4975243;28;20691;-73
2021/11/12 15:40:31;;;;;;;8.43;7.63;;;;;;;;;;4959252;28;20711;-73
2021/11/12 15:48:12;;;;;;;7.23;6.53;;;;;;;;;;4954043;28;20252;-73
2021/11/12 16:15:12;;;;;;;18.03;16.43;;;;;;;;;;4955246;28;20213;-73
2021/11/12 16:25:35;;;;;;;11.80;10.63;;;;;;;;;;4956355;28;20232;-73
2021/11/12 16:28:03;;;;;;;14.27;10.63;;;;;;;;;;4961225;28;20217;-73
2021/11/12 16:30:32;;;;;;;12.40;10.00;;;;;;;;;;4973386;28;20232;-74
2021/11/12 16:33:00;;;;;;;12.20;10.53;;;;;;;;;;4970177;28;20321;-74
2021/11/12 16:35:32;;;;;;;15.50;12.27;;;;;;;;;;4948535;28;20225;-75
2021/11/12 16:38:10;;;;;;;14.90;12.50;;;;;;;;;;4961502;28;20301;-73
2021/11/12 16:40:44;;;;;;;15.63;12.80;;;;;;;;;;4947279;28;20210;-72
2021/11/12 16:46:03;;;;;;;16.40;12.77;;;;;;;;;;4972849;28;20608;-74
2021/11/12 16:48:56;;;;;;;17.90;13.17;;;;;;;;;;4986985;28;20229;-74
2021/11/12 17:48:10;;;;;;;24.90;17.23;;;;;;;;;;5014488;28;20246;-76
2021/11/12 21:48:34;;;;;;;44.20;27.17;;;;;;;;;;5030652;28;20223;-75
2021/11/12 21:51:14;;;;;;;44.37;27.13;;;;;;;;;;5027405;28;20220;-76
2021/11/12 21:53:44;;;;;;;46.13;27.50;;;;;;;;;;5014376;28;20212;-74
2021/11/12 21:56:10;;;;;;;44.47;27.57;;;;;;;;;;5017099;28;20719;-75
2021/11/12 21:58:40;;;;;;;45.83;27.40;;;;;;;;;;4996852;28;20228;-75
2021/11/12 22:01:08;;;;;;;43.43;27.43;;;;;;;;;;5028295;28;20216;-76
2021/11/12 22:03:37;;;;;;;45.00;28.50;;;;;;;;;;5028256;28;20246;-75
2021/11/12 22:06:03;;;;;;;67.53;44.40;;;;;;;;;;5023626;28;20216;-76
2021/11/12 22:08:29;;;;;;;55.83;35.67;;;;;;;;;;5012769;28;20274;-76
2021/11/12 22:10:56;;;;;;;50.37;33.53;;;;;;;;;;4995128;28;20598;-75
2021/11/12 22:13:26;;;;;;;62.90;43.57;;;;;;;;;;5003452;28;20233;-75
2021/11/12 22:15:52;;;;;;;69.73;50.57;;;;;;;;;;5004877;28;20263;-76
2021/11/12 22:18:20;;;;;;;51.10;32.67;;;;;;;;;;4995614;28;20647;-74
2021/11/12 22:20:50;;;;;;;53.20;38.30;;;;;;;;;;5031635;28;20220;-75
2021/11/12 22:23:21;;;;;;;45.50;27.77;;;;;;;;;;5016320;28;20635;-74
2021/11/12 22:25:47;;;;;;;46.13;27.20;;;;;;;;;;5020162;28;20854;-74
2021/11/12 22:28:13;;;;;;;47.40;31.53;;;;;;;;;;5027532;28;20219;-74
2021/11/12 22:30:38;;;;;;;44.33;27.90;;;;;;;;;;5021537;28;20221;-75
2021/11/12 22:33:07;;;;;;;44.13;25.93;;;;;;;;;;5015010;28;20303;-74
2021/11/12 22:35:33;;;;;;;41.80;26.57;;;;;;;;;;5015494;28;20778;-75
2021/11/12 22:37:59;;;;;;;43.40;26.20;;;;;;;;;;4999552;28;20216;-75
2021/11/12 22:40:25;;;;;;;45.80;30.00;;;;;;;;;;5031119;28;20297;-76
2021/11/12 22:42:53;;;;;;;44.43;27.53;;;;;;;;;;5015358;28;20227;-76
2021/11/12 22:45:19;;;;;;;38.87;24.70;;;;;;;;;;4998416;28;20227;-76
2021/11/12 22:47:47;;;;;;;41.27;26.27;;;;;;;;;;5012992;28;20230;-74
2021/11/12 22:50:13;;;;;;;41.07;27.10;;;;;;;;;;5011318;28;20693;-74
2021/11/12 22:52:46;;;;;;;42.20;27.67;;;;;;;;;;5030005;28;20226;-74
2021/11/12 22:55:14;;;;;;;41.77;27.73;;;;;;;;;;5030655;28;20228;-75
2021/11/12 22:57:40;;;;;;;39.30;26.17;;;;;;;;;;5030960;28;20224;-74
2021/11/12 23:00:08;;;;;;;43.70;28.77;;;;;;;;;;5031653;28;20274;-74
2021/11/12 23:02:38;;;;;;;40.37;25.07;;;;;;;;;;5030693;28;20228;-75
2021/11/12 23:05:06;;;;;;;37.63;25.60;;;;;;;;;;4997771;28;20238;-74
2021/11/12 23:07:34;;;;;;;38.83;25.97;;;;;;;;;;5031812;28;20216;-74
2021/11/12 23:10:00;;;;;;;42.30;28.57;;;;;;;;;;5031847;28;20258;-75
2021/11/12 23:12:28;;;;;;;39.23;25.87;;;;;;;;;;5011453;28;20237;-74
2021/11/12 23:14:55;;;;;;;41.93;26.53;;;;;;;;;;5014027;28;20216;-75
2021/11/12 23:17:22;;;;;;;42.23;27.50;;;;;;;;;;5031499;28;21437;-74
2021/11/12 23:19:49;;;;;;;43.40;28.10;;;;;;;;;;5014826;28;20281;-75
2021/11/12 23:22:22;;;;;;;39.53;27.13;;;;;;;;;;4995036;28;20304;-74
2021/11/12 23:24:50;;;;;;;42.33;26.60;;;;;;;;;;5011194;28;20244;-74
2021/11/12 23:27:15;;;;;;;42.93;28.53;;;;;;;;;;5023294;28;20227;-74
2021/11/12 23:29:41;;;;;;;37.73;25.93;;;;;;;;;;5008403;28;20251;-75
2021/11/12 23:32:09;;;;;;;35.83;26.77;;;;;;;;;;4993922;28;20228;-74
2021/11/12 23:34:34;;;;;;;35.43;25.47;;;;;;;;;;5007307;28;20248;-74
2021/11/12 23:37:02;;;;;;;34.63;24.70;;;;;;;;;;5018972;28;20224;-74
2021/11/12 23:39:30;;;;;;;39.97;25.23;;;;;;;;;;4994393;28;20244;-74
2021/11/12 23:42:00;;;;;;;37.03;24.97;;;;;;;;;;5012328;28;20639;-75
2021/11/12 23:44:26;;;;;;;37.33;24.97;;;;;;;;;;5010721;28;20226;-74
2021/11/12 23:46:54;;;;;;;36.87;25.47;;;;;;;;;;5019676;28;20224;-74
2021/11/12 23:49:22;;;;;;;34.20;23.70;;;;;;;;;;5030874;28;20321;-74
2021/11/12 23:51:48;;;;;;;37.13;24.90;;;;;;;;;;5014987;28;20232;-75
2021/11/12 23:54:14;;;;;;;32.93;23.53;;;;;;;;;;5013806;28;20235;-73
2021/11/12 23:56:39;;;;;;;33.00;24.27;;;;;;;;;;5013910;28;20254;-73
2021/11/12 23:59:09;;;;;;;32.67;23.87;;;;;;;;;;5014083;28;20303;-75
